Latest Weather Observations for Melville Water

IDW60801

Issued at 6:03 am WST Saturday 24 June 2017 (issued every 30 minutes, with the page automatically refreshed every 10 minutes)

About weather observations | Map of weather stations | Latest weather observations for WA | Other Formats
Station Details ID: 009091 Name: INNER DOLPHIN PYLON Lat: -31.99 Lon: 115.83 Height: 0.0 m
Data from the previous 72 hours. | See also: Recent months at Melville Water
Date/Time
WST
Temp
°C
App
Temp
°C
Dew
Point
°C
Rel
Hum
%
Delta-T
°C
Wind Press
QNH
hPa
Press
MSL
hPa
Rain since
9am
mm
Dir  Spd
km/h
Gust
km/h
Spd
kts
Gust
kts
24/06:00am - - - - - ESE 17 22 9 12 - - -
24/05:30am - - - - - ESE 20 26 11 14 - - -
24/05:00am - - - - - E 20 30 11 16 - - -
24/04:30am - - - - - ESE 20 24 11 13 - - -
24/04:00am - - - - - SE 11 20 6 11 - - -
24/03:30am - - - - - ESE 19 26 10 14 - - -
24/03:00am - - - - - ESE 22 30 12 16 - - -
24/02:30am - - - - - ESE 19 24 10 13 - - -
24/02:00am - - - - - ESE 17 24 9 13 - - -
24/01:30am - - - - - ESE 22 32 12 17 - - -
24/01:00am - - - - - ESE 20 32 11 17 - - -
24/12:30am - - - - - ESE 24 30 13 16 - - -
24/12:00am - - - - - ESE 24 43 13 23 - - -
 
Date/Time
WST
Temp
°C
App
Temp
°C
Dew
Point
°C
Rel
Hum
%
Delta-T
°C
Wind Press
QNH
hPa
Press
MSL
hPa
Rain since
9am
mm
Dir  Spd
km/h
Gust
km/h
Spd
kts
Gust
kts
23/11:30pm - - - - - ESE 30 39 16 21 - - -
23/11:00pm - - - - - ESE 28 39 15 21 - - -
23/10:30pm - - - - - ESE 24 39 13 21 - - -
23/10:00pm - - - - - ESE 30 44 16 24 - - -
23/09:30pm - - - - - SE 32 39 17 21 - - -
23/09:00pm - - - - - SE 24 33 13 18 - - -
23/08:30pm - - - - - SE 26 33 14 18 - - -
23/08:00pm - - - - - SE 24 37 13 20 - - -
23/07:30pm - - - - - SE 24 30 13 16 - - -
23/07:00pm - - - - - SE 22 32 12 17 - - -
23/06:30pm - - - - - ESE 24 33 13 18 - - -
23/06:00pm - - - - - ESE 17 20 9 11 - - -
23/05:30pm - - - - - ESE 28 39 15 21 - - -
23/05:00pm - - - - - ESE 24 32 13 17 - - -
23/04:30pm - - - - - ESE 26 35 14 19 - - -
23/04:00pm - - - - - ESE 26 33 14 18 - - -
23/03:30pm - - - - - E 26 33 14 18 - - -
23/03:00pm - - - - - ESE 30 41 16 22 - - -
23/02:30pm - - - - - ESE 37 48 20 26 - - -
23/02:00pm - - - - - ESE 33 43 18 23 - - -
23/01:30pm - - - - - ESE 35 46 19 25 - - -
23/01:00pm - - - - - ESE 37 50 20 27 - - -
23/12:50pm - - - - - ESE 39 57 21 31 - - -
23/12:30pm - - - - - ESE 39 50 21 27 - - -
23/12:00pm - - - - - SE 33 43 18 23 - - -
23/11:30am - - - - - ESE 30 43 16 23 - - -
23/11:00am - - - - - ESE 32 46 17 25 - - -
23/10:30am - - - - - SE 24 32 13 17 - - -
23/10:00am - - - - - SE 30 37 16 20 - - -
23/09:30am - - - - - SE 24 35 13 19 - - -
23/09:00am - - - - - SE 22 30 12 16 - - -
23/08:30am - - - - - SE 20 28 11 15 - - -
23/08:00am - - - - - ESE 20 28 11 15 - - -
23/07:30am - - - - - SE 24 32 13 17 - - -
23/07:00am - - - - - SE 24 30 13 16 - - -
23/06:30am - - - - - SE 28 33 15 18 - - -
23/06:00am - - - - - SE 30 35 16 19 - - -
23/05:30am - - - - - SE 28 33 15 18 - - -
23/05:00am - - - - - SE 28 33 15 18 - - -
23/04:30am - - - - - SE 26 33 14 18 - - -
23/04:00am - - - - - SE 20 24 11 13 - - -
23/03:30am - - - - - SE 28 39 15 21 - - -
23/03:00am - - - - - SSE 26 33 14 18 - - -
23/02:30am - - - - - SSE 22 30 12 16 - - -
23/02:00am - - - - - SE 24 33 13 18 - - -
23/01:30am - - - - - SSE 20 26 11 14 - - -
23/01:00am - - - - - SSE 28 41 15 22 - - -
23/12:30am - - - - - SSE 32 43 17 23 - - -
23/12:00am - - - - - SSE 32 43 17 23 - - -
 
Date/Time
WST
Temp
°C
App
Temp
°C
Dew
Point
°C
Rel
Hum
%
Delta-T
°C
Wind Press
QNH
hPa
Press
MSL
hPa
Rain since
9am
mm
Dir  Spd
km/h
Gust
km/h
Spd
kts
Gust
kts
22/11:30pm - - - - - SSE 32 43 17 23 - - -
22/11:00pm - - - - - SSE 32 43 17 23 - - -
22/10:30pm - - - - - SSE 33 46 18 25 - - -
22/10:03pm - - - - - SSE 33 54 18 29 - - -
22/10:00pm - - - - - SSE 33 50 18 27 - - -
22/09:51pm - - - - - S 32 50 17 27 - - -
22/09:30pm - - - - - S 33 50 18 27 - - -
22/09:00pm - - - - - S 39 48 21 26 - - -
22/08:30pm - - - - - S 37 50 20 27 - - -
22/08:00pm - - - - - S 39 54 21 29 - - -
22/07:30pm - - - - - SSW 41 50 22 27 - - -
22/07:00pm - - - - - SSW 39 54 21 29 - - -
22/06:30pm - - - - - SSW 39 50 21 27 - - -
22/06:00pm - - - - - SSW 37 46 20 25 - - -
22/05:30pm - - - - - SSW 39 48 21 26 - - -
22/05:00pm - - - - - SSW 35 46 19 25 - - -
22/04:30pm - - - - - SSW 35 44 19 24 - - -
22/04:00pm - - - - - SSW 35 44 19 24 - - -
22/03:30pm - - - - - SSW 33 41 18 22 - - -
22/03:00pm - - - - - SW 32 41 17 22 - - -
22/02:30pm - - - - - SSW 32 39 17 21 - - -
22/02:00pm - - - - - SW 33 44 18 24 - - -
22/01:30pm - - - - - SW 35 43 19 23 - - -
22/01:00pm - - - - - SW 33 46 18 25 - - -
22/12:30pm - - - - - SW 32 39 17 21 - - -
22/12:00pm - - - - - SW 30 43 16 23 - - -
22/11:30am - - - - - WSW 32 39 17 21 - - -
22/11:00am - - - - - WSW 30 39 16 21 - - -
22/10:30am - - - - - WSW 28 37 15 20 - - -
22/10:00am - - - - - WSW 32 43 17 23 - - -
22/09:30am - - - - - WSW 32 43 17 23 - - -
22/09:00am - - - - - W 35 50 19 27 - - -
22/08:30am - - - - - W 37 56 20 30 - - -
22/08:05am - - - - - W 37 56 20 30 - - -
22/08:00am - - - - - W 41 56 22 30 - - -
22/07:42am - - - - - W 35 56 19 30 - - -
22/07:30am - - - - - W 32 46 17 25 - - -
22/07:08am - - - - - WNW 32 52 17 28 - - -
22/07:00am - - - - - WNW 33 48 18 26 - - -
22/06:40am - - - - - WNW 30 48 16 26 - - -
22/06:30am - - - - - WNW 26 39 14 21 - - -
22/06:11am - - - - - NW 28 50 15 27 - - -
22/06:00am - - - - - NW 22 41 12 22 - - -
22/05:30am - - - - - N 28 37 15 20 - - -
22/05:00am - - - - - N 35 48 19 26 - - -
22/04:55am - - - - - N 37 52 20 28 - - -
22/04:30am - - - - - NNW 35 50 19 27 - - -
22/04:19am - - - - - NNW 32 56 17 30 - - -
22/04:00am - - - - - NNE 30 39 16 21 - - -
22/03:30am - - - - - NNE 35 48 19 26 - - -
22/03:00am - - - - - N 30 41 16 22 - - -
22/02:30am - - - - - NNE 28 41 15 22 - - -
22/02:00am - - - - - NNE 28 39 15 21 - - -
22/01:30am - - - - - NNE 28 35 15 19 - - -
22/01:00am - - - - - NNE 26 32 14 17 - - -
22/12:30am - - - - - NNE 26 33 14 18 - - -
22/12:00am - - - - - NNW 32 44 17 24 - - -
 
Date/Time
WST
Temp
°C
App
Temp
°C
Dew
Point
°C
Rel
Hum
%
Delta-T
°C
Wind Press
QNH
hPa
Press
MSL
hPa
Rain since
9am
mm
Dir  Spd
km/h
Gust
km/h
Spd
kts
Gust
kts
21/11:56pm - - - - - N 30 44 16 24 - - -
21/11:30pm - - - - - NE 17 22 9 12 - - -
21/11:00pm - - - - - NNE 11 19 6 10 - - -
21/10:30pm - - - - - NNW 17 26 9 14 - - -
21/10:00pm - - - - - N 13 20 7 11 - - -
21/09:30pm - - - - - WNW 22 41 12 22 - - -
21/09:00pm - - - - - WNW 15 30 8 16 - - -
21/08:30pm - - - - - NW 26 39 14 21 - - -
21/08:00pm - - - - - NNW 22 32 12 17 - - -
21/07:30pm - - - - - NNW 26 37 14 20 - - -
21/07:00pm - - - - - NW 22 32 12 17 - - -
21/06:32pm - - - - - NW 28 50 15 27 - - -
21/06:30pm - - - - - NW 26 39 14 21 - - -
21/06:00pm - - - - - NNW 22 30 12 16 - - -
21/05:30pm - - - - - NW 24 35 13 19 - - -
21/05:00pm - - - - - NW 22 33 12 18 - - -
21/04:30pm - - - - - NW 24 39 13 21 - - -
21/04:00pm - - - - - NW 19 33 10 18 - - -
21/03:30pm - - - - - NW 22 37 12 20 - - -
21/03:00pm - - - - - NW 22 35 12 19 - - -
21/02:30pm - - - - - NW 26 37 14 20 - - -
21/02:00pm - - - - - NW 26 35 14 19 - - -
21/01:30pm - - - - - NW 30 44 16 24 - - -
21/01:19pm - - - - - NW 28 46 15 25 - - -
21/01:00pm - - - - - NNW 30 39 16 21 - - -
21/12:30pm - - - - - NW 28 37 15 20 - - -
21/12:00pm - - - - - NW 22 32 12 17 - - -
21/11:30am - - - - - NNW 17 28 9 15 - - -
21/11:00am - - - - - NNE 15 20 8 11 - - -
21/10:30am - - - - - NNE 20 24 11 13 - - -
21/10:00am - - - - - NNE 15 19 8 10 - - -
21/09:30am - - - - - NNE 20 22 11 12 - - -
21/09:00am - - - - - NNE 17 22 9 12 - - -
21/08:30am - - - - - N 19 24 10 13 - - -
21/08:00am - - - - - N 19 24 10 13 - - -
21/07:30am - - - - - NNE 20 22 11 12 - - -
21/07:00am - - - - - NNE 17 19 9 10 - - -
21/06:30am - - - - - N 11 20 6 11 - - -

Other Formats:

Comma delimited format used in spreadsheet applications
http://www.bom.gov.au/fwo/IDW60801/IDW60801.95620.axf

JavaScript Object Notation format (JSON) in row-major order
http://www.bom.gov.au/fwo/IDW60801/IDW60801.95620.json